Time;durP1;ratioP1;P1;durP2;ratioP2;P2;SDS_P1;SDS_P2;PMS_P1;PMS_P2;Temp;Humidity;BMP_temperature;BMP_pressure;BME280_temperature;BME280_humidity;BME280_pressure;Samples;Min_cycle;Max_cycle;Signal;HPM_P1;HPM_P2
2024/04/14 00:01:28;;;;;;;14.40;3.00;;;;;;;13.23;100.00;101876.28;5347292;26;20012;-70
2024/04/14 00:03:57;;;;;;;12.55;3.00;;;;;;;13.19;100.00;101878.88;5346945;26;20075;-65
2024/04/14 00:06:23;;;;;;;11.43;2.85;;;;;;;13.21;100.00;101882.47;5345606;26;19997;-65
2024/04/14 00:08:51;;;;;;;12.75;3.00;;;;;;;13.34;100.00;101894.06;5346821;26;19997;-66
2024/04/14 00:11:16;;;;;;;10.40;2.95;;;;;;;13.24;100.00;101894.00;5347050;26;20012;-66
2024/04/14 00:13:42;;;;;;;11.98;2.80;;;;;;;13.33;100.00;101893.19;5389768;26;20000;-65
2024/04/14 00:16:07;;;;;;;13.13;3.05;;;;;;;13.28;100.00;101891.38;5345331;26;20001;-69
2024/04/14 00:18:32;;;;;;;14.98;3.10;;;;;;;13.22;100.00;101890.44;5388988;26;19993;-70
2024/04/14 00:20:58;;;;;;;12.27;3.00;;;;;;;13.14;100.00;101886.81;5347038;26;20001;-69
2024/04/14 00:23:23;;;;;;;11.40;3.10;;;;;;;13.02;100.00;101884.03;5346690;26;20070;-66
2024/04/14 00:25:49;;;;;;;14.05;3.22;;;;;;;12.97;100.00;101888.41;5346567;26;20012;-73
2024/04/14 00:28:14;;;;;;;15.48;3.53;;;;;;;12.91;100.00;101884.78;5346741;26;19999;-66
2024/04/14 00:30:41;;;;;;;11.52;3.15;;;;;;;12.85;100.00;101886.50;5346863;26;20001;-66
2024/04/14 00:33:06;;;;;;;14.73;3.17;;;;;;;12.80;100.00;101886.44;5346751;26;20459;-69
2024/04/14 00:35:32;;;;;;;13.10;3.25;;;;;;;12.78;100.00;101888.19;5389148;26;19996;-73
2024/04/14 00:37:57;;;;;;;15.27;3.42;;;;;;;12.62;100.00;101878.25;5346529;26;20008;-72
2024/04/14 00:40:23;;;;;;;13.20;3.17;;;;;;;12.54;100.00;101884.38;5346389;26;19997;-66
2024/04/14 00:42:55;;;;;;;15.40;3.50;;;;;;;12.47;100.00;101887.81;5346599;26;19993;-74
2024/04/14 00:45:20;;;;;;;15.00;3.50;;;;;;;12.46;100.00;101883.38;5346320;26;19997;-69
2024/04/14 00:47:46;;;;;;;14.30;3.40;;;;;;;12.42;100.00;101881.56;5346214;26;20016;-65
2024/04/14 00:50:13;;;;;;;14.57;3.50;;;;;;;12.38;100.00;101883.28;5346394;26;20526;-65
2024/04/14 00:52:38;;;;;;;14.35;3.58;;;;;;;12.33;100.00;101884.06;5344445;26;20367;-68
2024/04/14 00:55:04;;;;;;;16.67;3.60;;;;;;;12.31;100.00;101880.53;5346487;26;20001;-65
2024/04/14 00:57:32;;;;;;;17.75;3.90;;;;;;;12.24;100.00;101895.44;5346234;26;20000;-65
2024/04/14 00:59:59;;;;;;;17.75;3.70;;;;;;;12.46;100.00;101891.31;5346382;26;20000;-65
2024/04/14 01:02:24;;;;;;;16.75;4.00;;;;;;;12.32;100.00;101891.16;5344533;26;20075;-65
2024/04/14 01:04:50;;;;;;;15.48;4.03;;;;;;;12.32;100.00;101898.19;5346191;26;19997;-65
2024/04/14 01:07:16;;;;;;;17.25;4.18;;;;;;;12.33;100.00;101899.97;5346037;26;20008;-65
2024/04/14 01:09:41;;;;;;;16.65;4.03;;;;;;;12.25;100.00;101907.84;5344519;26;20008;-65
2024/04/14 01:12:08;;;;;;;16.23;4.43;;;;;;;12.21;100.00;101904.22;5344339;26;20332;-69
2024/04/14 01:14:33;;;;;;;18.00;4.10;;;;;;;12.25;100.00;101906.97;5345904;26;20360;-67
2024/04/14 01:16:58;;;;;;;17.98;4.13;;;;;;;12.27;100.00;101905.22;5346290;26;19999;-65
2024/04/14 01:19:24;;;;;;;16.60;4.30;;;;;;;12.17;100.00;101909.47;5345636;26;19997;-65
2024/04/14 01:21:49;;;;;;;19.15;4.47;;;;;;;12.14;100.00;101910.31;5345713;26;20091;-64
2024/04/14 01:24:14;;;;;;;18.73;4.57;;;;;;;12.17;100.00;101913.03;5346037;26;20012;-66
2024/04/14 01:26:40;;;;;;;19.08;4.68;;;;;;;12.17;100.00;101910.38;5345876;26;19996;-68
2024/04/14 01:29:06;;;;;;;20.08;4.88;;;;;;;12.02;100.00;101916.31;5345793;26;19997;-67
2024/04/14 01:31:31;;;;;;;19.35;4.97;;;;;;;12.06;100.00;101909.31;5345756;26;20004;-68
2024/04/14 01:33:57;;;;;;;21.17;4.78;;;;;;;12.10;100.00;101912.91;5345768;26;20001;-67
2024/04/14 01:36:22;;;;;;;20.55;4.90;;;;;;;12.07;100.00;101913.75;5345552;26;19998;-69
2024/04/14 01:38:47;;;;;;;20.77;5.10;;;;;;;12.01;100.00;101921.59;5345558;26;20416;-68
2024/04/14 01:41:13;;;;;;;19.77;5.10;;;;;;;11.95;100.00;101933.00;5345742;26;20489;-65
2024/04/14 01:43:38;;;;;;;20.45;5.30;;;;;;;11.87;100.00;101921.38;5345447;26;20514;-65
2024/04/14 01:46:04;;;;;;;17.20;4.82;;;;;;;11.87;100.00;101929.31;5348933;26;19996;-69
2024/04/14 01:48:29;;;;;;;20.50;5.47;;;;;;;11.74;100.00;101935.28;5348663;26;20001;-66
2024/04/14 01:50:54;;;;;;;20.38;5.43;;;;;;;11.64;100.00;101934.22;5347561;26;20409;-67
2024/04/14 01:53:20;;;;;;;19.63;5.40;;;;;;;11.58;100.00;101939.41;5348708;26;20016;-70
2024/04/14 01:55:46;;;;;;;20.45;5.25;;;;;;;11.56;100.00;101930.53;5346995;26;20328;-72
2024/04/14 01:58:11;;;;;;;19.50;4.90;;;;;;;11.48;100.00;101947.19;5349064;26;20032;-72
2024/04/14 02:00:37;;;;;;;17.65;5.03;;;;;;;11.47;100.00;101940.09;5348650;26;19997;-65
2024/04/14 02:03:02;;;;;;;18.13;4.80;;;;;;;11.47;100.00;101941.88;5348664;26;19997;-67
2024/04/14 02:05:28;;;;;;;20.23;5.18;;;;;;;11.40;100.00;101943.53;5348885;26;20004;-65
2024/04/14 02:07:53;;;;;;;19.05;5.10;;;;;;;11.46;100.00;101946.28;5390899;26;20009;-67
2024/04/14 02:10:19;;;;;;;19.23;5.10;;;;;;;11.42;100.00;101948.84;5348838;26;19993;-66
2024/04/14 02:12:44;;;;;;;21.58;5.70;;;;;;;11.36;100.00;101944.31;5349017;26;20432;-65
2024/04/14 02:15:10;;;;;;;21.98;5.68;;;;;;;11.39;100.00;101954.06;5348652;26;20443;-70
2024/04/14 02:17:35;;;;;;;20.83;5.65;;;;;;;11.32;100.00;101953.06;5348207;26;20340;-68
2024/04/14 02:20:00;;;;;;;19.73;5.65;;;;;;;11.24;100.00;101955.59;5348900;26;19997;-67
2024/04/14 02:22:26;;;;;;;20.65;5.72;;;;;;;11.25;100.00;101957.34;5348765;26;20493;-67
2024/04/14 02:24:51;;;;;;;20.23;5.85;;;;;;;11.26;100.00;101960.91;5348519;26;19997;-67
2024/04/14 02:27:17;;;;;;;22.80;6.18;;;;;;;11.27;100.00;101965.31;5348566;26;20007;-67
2024/04/14 02:29:42;;;;;;;22.55;6.10;;;;;;;11.30;100.00;101966.28;5346756;26;19993;-66
2024/04/14 02:32:07;;;;;;;21.60;5.90;;;;;;;11.26;100.00;101971.50;5348779;26;20063;-67
2024/04/14 02:34:33;;;;;;;22.67;5.90;;;;;;;11.26;100.00;101963.53;5341418;26;20008;-67
2024/04/14 02:36:58;;;;;;;23.20;6.40;;;;;;;11.23;100.00;101958.19;5346292;26;19997;-65
2024/04/14 02:39:24;;;;;;;22.27;6.10;;;;;;;11.20;100.00;101963.41;5348453;26;20008;-64
2024/04/14 02:41:49;;;;;;;21.73;5.95;;;;;;;11.23;100.00;101974.97;5348224;26;20003;-66
2024/04/14 02:44:16;;;;;;;22.58;6.07;;;;;;;11.20;100.00;101971.34;5347996;26;19996;-66
2024/04/14 02:46:42;;;;;;;21.65;5.90;;;;;;;11.21;100.00;101981.06;5348271;26;20003;-65
2024/04/14 02:49:07;;;;;;;22.73;6.28;;;;;;;11.16;100.00;101959.81;5348206;26;20420;-65
2024/04/14 02:51:33;;;;;;;22.45;6.53;;;;;;;11.12;100.00;101968.56;5341253;26;20004;-67
2024/04/14 02:53:58;;;;;;;23.20;6.75;;;;;;;11.04;100.00;101967.50;5361387;26;20104;-65
2024/04/14 02:56:23;;;;;;;21.60;6.65;;;;;;;10.98;100.00;101974.47;5346370;26;19997;-66
2024/04/14 02:58:49;;;;;;;23.88;6.97;;;;;;;10.90;100.00;101969.88;5348132;26;20001;-66
2024/04/14 03:01:16;;;;;;;22.20;6.32;;;;;;;10.87;100.00;101967.16;5346217;26;20007;-65
2024/04/14 03:03:43;;;;;;;23.27;6.32;;;;;;;10.86;100.00;101978.59;5347948;26;19996;-66
2024/04/14 03:06:09;;;;;;;22.27;6.85;;;;;;;10.85;100.00;101968.88;5346296;26;20004;-67
2024/04/14 03:08:34;;;;;;;22.40;6.40;;;;;;;10.77;100.00;101972.25;5348278;26;20008;-66
2024/04/14 03:10:59;;;;;;;21.13;6.38;;;;;;;10.70;100.00;101978.25;5348160;26;20067;-65
2024/04/14 03:13:25;;;;;;;24.70;7.00;;;;;;;10.58;100.00;101975.34;5348063;26;20001;-65
2024/04/14 03:15:52;;;;;;;22.52;6.80;;;;;;;10.57;100.00;101986.78;5347851;26;19993;-65
2024/04/14 03:18:17;;;;;;;23.95;6.78;;;;;;;10.56;100.00;101985.03;5347488;26;20001;-65
2024/04/14 03:20:53;;;;;;;23.92;7.65;;;;;;;10.55;100.00;101978.81;5347601;26;20325;-65
2024/04/14 03:23:18;;;;;;;23.90;7.20;;;;;;;10.47;100.00;101983.06;5347846;26;20001;-66
2024/04/14 03:25:43;;;;;;;21.65;6.85;;;;;;;10.39;100.00;101988.16;5347386;26;20003;-67
2024/04/14 03:28:09;;;;;;;21.95;6.63;;;;;;;10.46;100.00;101999.78;5347335;26;20012;-65
2024/04/14 03:30:34;;;;;;;22.08;6.50;;;;;;;10.45;100.00;102001.50;5347801;26;20007;-70
2024/04/14 03:32:59;;;;;;;24.20;6.65;;;;;;;10.53;100.00;102000.78;5347704;26;19997;-65
2024/04/14 03:35:24;;;;;;;23.17;6.00;;;;;;;10.54;100.00;101997.28;5347431;26;19996;-68
2024/04/14 03:37:50;;;;;;;21.95;6.00;;;;;;;10.53;100.00;101988.47;5347168;26;20001;-65
2024/04/14 03:40:15;;;;;;;21.48;5.85;;;;;;;10.53;100.00;101987.56;5347204;26;19993;-67
2024/04/14 03:42:40;;;;;;;20.20;5.70;;;;;;;10.53;100.00;102011.38;5347790;26;19997;-65
2024/04/14 03:45:07;;;;;;;20.33;4.65;;;;;;;10.68;100.00;102003.78;5347319;26;20071;-67
2024/04/14 03:47:33;;;;;;;19.88;4.55;;;;;;;10.74;100.00;102011.84;5347396;26;20000;-69
2024/04/14 03:49:58;;;;;;;20.15;4.20;;;;;;;10.78;100.00;102008.41;5345458;26;20396;-67
2024/04/14 03:52:23;;;;;;;19.38;4.00;;;;;;;10.77;100.00;102009.28;5347364;26;20427;-73
2024/04/14 03:54:49;;;;;;;15.02;3.17;;;;;;;10.87;100.00;102006.84;5347293;26;20514;-74
2024/04/14 03:57:14;;;;;;;16.77;3.47;;;;;;;10.85;100.00;102008.56;5347337;26;20082;-74
2024/04/14 03:59:40;;;;;;;15.82;3.17;;;;;;;10.72;100.00;102007.41;5347056;26;20343;-67
2024/04/14 04:02:06;;;;;;;17.52;3.00;;;;;;;10.66;100.00;102010.81;5347242;26;20012;-65
2024/04/14 04:04:31;;;;;;;15.63;2.95;;;;;;;10.59;100.00;102009.75;5347114;26;20358;-65
2024/04/14 04:06:56;;;;;;;15.35;3.08;;;;;;;10.50;100.00;102016.59;5346449;26;20340;-66
2024/04/14 04:09:22;;;;;;;17.60;3.00;;;;;;;10.46;100.00;102018.28;5347025;26;20004;-68
2024/04/14 04:11:47;;;;;;;14.65;2.90;;;;;;;10.38;100.00;102015.47;5389984;26;20016;-72
2024/04/14 04:14:12;;;;;;;15.32;2.88;;;;;;;10.39;100.00;102011.94;5346834;26;19993;-70
2024/04/14 04:16:38;;;;;;;17.08;2.92;;;;;;;10.44;100.00;102017.31;5347157;26;20000;-69
2024/04/14 04:19:03;;;;;;;15.27;2.85;;;;;;;10.45;100.00;102030.59;5383322;26;20080;-65
2024/04/14 04:21:28;;;;;;;13.77;2.72;;;;;;;10.48;100.00;102024.47;5345479;26;20070;-72
2024/04/14 04:23:54;;;;;;;15.32;2.78;;;;;;;10.59;100.00;102032.69;5347140;26;19997;-67
2024/04/14 04:26:20;;;;;;;14.40;2.65;;;;;;;10.58;100.00;102020.31;5347007;26;20468;-73
2024/04/14 04:28:45;;;;;;;13.23;2.88;;;;;;;10.62;100.00;102019.53;5346767;26;19993;-68
2024/04/14 04:31:12;;;;;;;16.00;2.75;;;;;;;10.62;100.00;102028.34;5346985;26;20406;-67
2024/04/14 04:33:40;;;;;;;14.48;2.83;;;;;;;10.65;100.00;102024.88;5346878;26;20008;-68
2024/04/14 04:36:06;;;;;;;18.35;2.80;;;;;;;10.71;100.00;102024.13;5346695;26;20023;-65
2024/04/14 04:38:31;;;;;;;16.13;2.97;;;;;;;10.70;100.00;102025.88;5346784;26;20009;-67
2024/04/14 04:40:57;;;;;;;18.05;2.90;;;;;;;10.67;100.00;102031.09;5346661;26;20077;-67
2024/04/14 04:43:23;;;;;;;15.95;2.80;;;;;;;10.68;100.00;102042.56;5346282;26;20012;-67
2024/04/14 04:45:49;;;;;;;17.33;2.83;;;;;;;10.64;100.00;102041.59;5346633;26;19993;-67
2024/04/14 04:48:14;;;;;;;15.50;2.80;;;;;;;10.66;100.00;102049.56;5346133;26;20073;-67
2024/04/14 04:50:40;;;;;;;14.95;2.80;;;;;;;10.63;100.00;102042.47;5346720;26;19997;-67
2024/04/14 04:53:05;;;;;;;16.65;2.70;;;;;;;10.66;100.00;102045.19;5346750;26;20008;-66
2024/04/14 04:55:31;;;;;;;17.55;2.92;;;;;;;10.68;100.00;102042.56;5346185;26;20007;-66
2024/04/14 04:57:56;;;;;;;16.38;2.58;;;;;;;10.74;100.00;102042.72;5346457;26;19997;-67
2024/04/14 05:00:22;;;;;;;17.38;2.72;;;;;;;10.74;100.00;102051.53;5346021;26;20071;-68
2024/04/14 05:02:47;;;;;;;15.90;2.63;;;;;;;10.75;100.00;102048.03;5346144;26;20012;-68
2024/04/14 05:05:14;;;;;;;17.52;2.88;;;;;;;10.71;100.00;102050.56;5344785;26;20007;-66
2024/04/14 05:07:40;;;;;;;12.70;2.80;;;;;;;10.70;100.00;102041.72;5387556;26;20008;-66
2024/04/14 05:10:06;;;;;;;12.05;2.60;;;;;;;10.68;100.00;102054.03;5346047;26;20339;-68
2024/04/14 05:12:31;;;;;;;13.63;2.80;;;;;;;10.67;100.00;102062.81;5346337;26;20020;-67
2024/04/14 05:14:56;;;;;;;16.63;2.90;;;;;;;10.69;100.00;102054.91;5346258;26;19997;-70
2024/04/14 05:17:22;;;;;;;16.80;2.67;;;;;;;10.69;100.00;102063.78;5345394;26;20013;-66
2024/04/14 05:19:47;;;;;;;16.33;2.55;;;;;;;10.70;100.00;102057.59;5347913;26;20008;-66
2024/04/14 05:22:12;;;;;;;13.60;2.60;;;;;;;10.72;100.00;102066.47;5349506;26;19993;-70
2024/04/14 05:24:38;;;;;;;17.23;2.92;;;;;;;10.71;100.00;102064.69;5349090;26;20001;-66
2024/04/14 05:27:04;;;;;;;16.30;2.63;;;;;;;10.68;100.00;102069.03;5349469;26;20008;-66
2024/04/14 05:29:30;;;;;;;18.65;2.85;;;;;;;10.64;100.00;102070.69;5349075;26;20497;-66
2024/04/14 05:31:55;;;;;;;14.00;2.67;;;;;;;10.63;100.00;102072.44;5390855;26;19993;-66
2024/04/14 05:34:21;;;;;;;16.65;2.88;;;;;;;10.63;100.00;102079.50;5349368;26;20482;-66
2024/04/14 05:36:47;;;;;;;15.52;2.50;;;;;;;10.66;100.00;102084.84;5348808;26;20005;-67
2024/04/14 05:39:13;;;;;;;18.90;3.00;;;;;;;10.70;100.00;102076.09;5348945;26;20009;-71
2024/04/14 05:41:38;;;;;;;15.65;2.70;;;;;;;10.76;100.00;102078.94;5349601;26;20099;-67
2024/04/14 05:44:04;;;;;;;17.08;2.67;;;;;;;10.82;100.00;102079.06;5349080;26;19997;-68
2024/04/14 05:46:29;;;;;;;14.77;2.63;;;;;;;10.87;100.00;102075.63;5349447;26;20344;-72
2024/04/14 05:48:55;;;;;;;17.52;2.90;;;;;;;10.92;100.00;102079.25;5348678;26;19993;-73
2024/04/14 05:51:20;;;;;;;16.15;2.50;;;;;;;10.95;100.00;102084.59;5348744;26;20041;-73
2024/04/14 05:53:46;;;;;;;16.42;2.72;;;;;;;11.01;100.00;102095.34;5348940;26;19996;-74
2024/04/14 05:56:11;;;;;;;15.35;2.42;;;;;;;11.00;100.00;102098.84;5348645;26;20001;-69
2024/04/14 05:58:37;;;;;;;17.60;2.63;;;;;;;11.05;100.00;102096.31;5391111;26;20339;-67
2024/04/14 06:01:04;;;;;;;18.05;2.92;;;;;;;11.02;100.00;102089.19;5347435;26;20013;-69
2024/04/14 06:03:30;;;;;;;15.43;2.63;;;;;;;11.05;100.00;102091.88;5348849;26;19993;-66
2024/04/14 06:05:55;;;;;;;16.92;2.70;;;;;;;11.08;100.00;102085.78;5348847;26;20012;-69
2024/04/14 06:08:20;;;;;;;15.35;2.60;;;;;;;11.09;100.00;102092.88;5348887;26;20043;-65
2024/04/14 06:10:46;;;;;;;16.85;2.80;;;;;;;11.19;100.00;102102.78;5349109;26;19997;-76
2024/04/14 06:13:11;;;;;;;18.05;2.70;;;;;;;11.25;100.00;102107.34;5348567;26;20001;-72
2024/04/14 06:15:37;;;;;;;15.25;2.70;;;;;;;11.32;100.00;102093.38;5348854;26;20009;-73
2024/04/14 06:18:02;;;;;;;19.08;3.25;;;;;;;11.32;100.00;102096.03;5348483;26;20004;-73
2024/04/14 06:20:27;;;;;;;16.60;2.63;;;;;;;11.34;100.00;102103.13;5348908;26;20011;-70
2024/04/14 06:22:53;;;;;;;15.70;2.70;;;;;;;11.39;100.00;102100.59;5341140;26;20067;-75
2024/04/14 06:25:18;;;;;;;17.55;3.10;;;;;;;11.39;100.00;102100.59;5346987;26;19997;-69
2024/04/14 06:27:43;;;;;;;16.70;2.90;;;;;;;11.46;100.00;102102.50;5348566;26;20003;-76
2024/04/14 06:30:11;;;;;;;16.80;2.70;;;;;;;11.60;100.00;102107.19;5348494;26;19997;-73
2024/04/14 06:32:36;;;;;;;17.83;2.97;;;;;;;11.70;100.00;102114.44;5348308;26;20071;-72
2024/04/14 06:35:01;;;;;;;15.38;2.60;;;;;;;11.76;100.00;102113.66;5348444;26;20009;-74
2024/04/14 06:37:27;;;;;;;20.23;2.90;;;;;;;11.80;100.00;102110.22;5348160;26;20062;-75
2024/04/14 06:39:52;;;;;;;15.93;3.05;;;;;;;11.91;100.00;102107.78;5390481;26;20428;-71
2024/04/14 06:42:17;;;;;;;14.80;2.70;;;;;;;11.90;100.00;102113.91;5348661;26;20008;-67
2024/04/14 06:44:43;;;;;;;17.95;2.83;;;;;;;11.89;100.00;102105.09;5346604;26;20387;-67
2024/04/14 06:47:08;;;;;;;19.73;2.85;;;;;;;11.96;100.00;102114.97;5346435;26;20339;-69
2024/04/14 06:49:33;;;;;;;18.35;2.85;;;;;;;12.02;100.00;102122.16;5348624;26;20001;-66
2024/04/14 06:51:59;;;;;;;16.33;2.75;;;;;;;12.10;100.00;102115.25;5348202;26;20000;-66
2024/04/14 06:54:24;;;;;;;15.20;2.75;;;;;;;12.12;100.00;102124.09;5346243;26;19996;-71
2024/04/14 06:56:49;;;;;;;16.15;2.60;;;;;;;12.17;100.00;102124.19;5348237;26;20001;-74
2024/04/14 06:59:15;;;;;;;15.00;2.60;;;;;;;12.26;100.00;102131.41;5347928;26;19996;-67
2024/04/14 07:01:40;;;;;;;16.42;2.70;;;;;;;12.41;100.00;102138.72;5348393;26;20000;-70
2024/04/14 07:04:05;;;;;;;14.43;2.60;;;;;;;12.44;100.00;102137.03;5345999;26;19992;-75
2024/04/14 07:06:31;;;;;;;16.13;2.45;;;;;;;12.58;100.00;102139.91;5317501;26;19997;-76
2024/04/14 07:08:56;;;;;;;17.15;2.80;;;;;;;12.67;100.00;102136.56;5348301;26;19993;-75
2024/04/14 07:11:21;;;;;;;13.82;2.53;;;;;;;12.87;100.00;102129.78;5346182;26;19998;-76
2024/04/14 07:13:47;;;;;;;16.98;2.60;;;;;;;13.01;100.00;102131.75;5347805;26;19997;-71
2024/04/14 07:16:12;;;;;;;16.00;2.60;;;;;;;12.98;100.00;102134.38;5348101;26;20012;-71
2024/04/14 07:18:37;;;;;;;15.27;2.42;;;;;;;12.97;100.00;102129.91;5347076;26;19997;-76
2024/04/14 07:21:03;;;;;;;11.18;2.30;;;;;;;13.01;100.00;102129.09;5347686;26;20008;-71
2024/04/14 07:23:31;;;;;;;10.77;2.50;;;;;;;12.98;100.00;102129.94;5347740;26;20017;-73
2024/04/14 07:25:57;;;;;;;14.93;2.50;;;;;;;12.94;100.00;102132.53;5347428;26;20012;-72
2024/04/14 07:28:22;;;;;;;15.77;2.70;;;;;;;13.07;100.00;102126.53;5345938;26;19993;-73
2024/04/14 07:30:48;;;;;;;15.32;2.65;;;;;;;13.16;100.00;102131.94;5347791;26;20420;-74
2024/04/14 07:33:15;;;;;;;10.10;2.20;;;;;;;13.34;100.00;102127.75;5347523;26;20008;-72
2024/04/14 07:35:40;;;;;;;13.70;2.58;;;;;;;13.41;100.00;102145.59;5317273;26;20029;-72
2024/04/14 07:38:06;;;;;;;14.07;2.38;;;;;;;13.31;100.00;102143.66;5347413;26;19996;-74
2024/04/14 07:40:31;;;;;;;14.77;2.40;;;;;;;13.46;100.00;102146.56;5347518;26;19997;-75
2024/04/14 07:42:56;;;;;;;16.02;2.53;;;;;;;13.49;100.00;102135.09;5346479;26;20320;-69
2024/04/14 07:45:21;;;;;;;14.60;2.42;;;;;;;13.61;100.00;102140.56;5345757;26;20001;-76
2024/04/14 07:47:47;;;;;;;12.98;2.40;;;;;;;13.62;100.00;102138.81;5347089;26;20004;-75
2024/04/14 07:50:12;;;;;;;14.65;2.35;;;;;;;13.62;100.00;102145.00;5345833;26;19997;-76
2024/04/14 07:52:37;;;;;;;13.55;2.40;;;;;;;13.85;100.00;102142.63;5345504;26;20332;-65
2024/04/14 07:55:03;;;;;;;14.32;2.53;;;;;;;14.03;100.00;102152.56;5347371;26;20315;-66
2024/04/14 07:57:29;;;;;;;12.65;2.40;;;;;;;14.20;100.00;102154.47;5347120;26;20066;-65
2024/04/14 07:59:55;;;;;;;13.30;2.58;;;;;;;14.32;100.00;102154.63;5347234;26;20001;-66
2024/04/14 08:02:20;;;;;;;13.30;2.50;;;;;;;14.33;100.00;102147.53;5346862;26;20008;-68
2024/04/14 08:04:46;;;;;;;14.10;2.70;;;;;;;14.36;100.00;102160.84;5338468;26;20023;-66
2024/04/14 08:07:12;;;;;;;15.00;2.80;;;;;;;14.15;100.00;102157.09;5346878;26;20018;-73
2024/04/14 08:09:37;;;;;;;15.57;2.90;;;;;;;14.16;100.00;102156.25;5346820;26;19997;-65
2024/04/14 08:12:03;;;;;;;12.85;2.65;;;;;;;14.23;100.00;102160.75;5346891;26;20040;-66
2024/04/14 08:14:28;;;;;;;14.82;2.70;;;;;;;14.57;100.00;102158.38;5346360;26;20407;-66
2024/04/14 08:16:54;;;;;;;16.25;2.60;;;;;;;14.58;100.00;102162.84;5346816;26;20000;-66
2024/04/14 08:19:19;;;;;;;16.92;2.80;;;;;;;14.59;100.00;102166.38;5346754;26;20100;-65
2024/04/14 08:21:45;;;;;;;16.17;2.78;;;;;;;14.66;100.00;102165.59;5388544;26;20467;-65
2024/04/14 08:24:11;;;;;;;16.80;2.92;;;;;;;15.01;100.00;102166.75;5345086;26;20153;-66
2024/04/14 08:26:36;;;;;;;16.17;2.83;;;;;;;15.34;100.00;102164.28;5346817;26;19993;-66
2024/04/14 08:29:01;;;;;;;16.08;2.70;;;;;;;15.31;100.00;102145.63;5346505;26;20074;-66
2024/04/14 08:31:27;;;;;;;14.00;2.58;;;;;;;15.03;100.00;102146.34;5316624;26;20028;-67
2024/04/14 08:33:52;;;;;;;14.68;2.40;;;;;;;15.12;100.00;102147.28;5344875;26;20009;-66
2024/04/14 08:36:17;;;;;;;15.68;2.67;;;;;;;15.13;100.00;102148.19;5346234;26;19997;-66
2024/04/14 08:38:43;;;;;;;14.52;2.70;;;;;;;15.33;100.00;102158.94;5347042;26;20428;-66
2024/04/14 08:41:14;;;;;;;17.35;2.80;;;;;;;15.65;100.00;102161.78;5346541;26;20312;-66
2024/04/14 08:43:39;;;;;;;14.63;2.80;;;;;;;15.78;100.00;102161.81;5346619;26;20008;-66
2024/04/14 08:46:07;;;;;;;15.52;2.60;;;;;;;16.04;100.00;102159.28;5346375;26;20368;-66
2024/04/14 08:48:33;;;;;;;15.60;2.53;;;;;;;16.85;100.00;102157.56;5339459;26;20004;-68
2024/04/14 08:51:00;;;;;;;15.77;2.75;;;;;;;16.75;100.00;102159.34;5346306;26;20407;-68
2024/04/14 08:53:28;;;;;;;14.27;2.50;;;;;;;16.35;100.00;102168.22;5346630;26;20000;-68
2024/04/14 08:55:54;;;;;;;15.32;2.50;;;;;;;16.23;100.00;102165.53;5346281;26;20328;-69
2024/04/14 08:58:21;;;;;;;13.70;2.40;;;;;;;16.19;100.00;102166.41;5346306;26;20008;-73
2024/04/14 09:00:57;;;;;;;13.20;2.67;;;;;;;17.06;100.00;102165.56;5345028;26;19993;-73
2024/04/14 09:03:23;;;;;;;15.05;2.45;;;;;;;17.93;100.00;102173.31;5346527;26;20001;-72
2024/04/14 09:05:48;;;;;;;12.77;2.60;;;;;;;18.18;100.00;102175.84;5346075;26;20063;-72
2024/04/14 09:08:14;;;;;;;13.45;2.50;;;;;;;17.69;100.00;102169.84;5345855;26;20000;-74
2024/04/14 09:10:39;;;;;;;15.70;2.70;;;;;;;17.80;100.00;102166.22;5346642;26;19993;-75
2024/04/14 09:13:06;;;;;;;14.05;2.50;;;;;;;17.64;100.00;102168.09;5346204;26;20012;-75
2024/04/14 09:15:37;;;;;;;16.35;2.97;;;;;;;16.84;100.00;102172.69;5346338;26;20096;-75
2024/04/14 09:18:03;;;;;;;16.50;2.85;;;;;;;16.10;100.00;102185.06;5338947;26;20012;-72
2024/04/14 09:20:28;;;;;;;13.80;2.70;;;;;;;15.85;100.00;102177.00;5345981;26;20413;-72
2024/04/14 09:22:53;;;;;;;17.33;3.10;;;;;;;15.85;100.00;102174.31;5346112;26;20425;-72
2024/04/14 09:25:19;;;;;;;14.85;3.00;;;;;;;16.02;100.00;102182.38;5345853;26;20007;-72
2024/04/14 09:27:44;;;;;;;14.63;2.70;;;;;;;16.16;100.00;102175.31;5345617;26;20478;-71
2024/04/14 09:30:18;;;;;;;17.15;3.28;;;;;;;16.26;100.00;102170.88;5345776;26;20008;-71
2024/04/14 09:32:44;;;;;;;15.95;3.00;;;;;;;16.43;100.00;102164.69;5345968;26;19993;-72
2024/04/14 09:35:10;;;;;;;18.20;3.10;;;;;;;16.34;100.00;102165.56;5345780;26;19997;-72
2024/04/14 09:37:37;;;;;;;16.02;3.00;;;;;;;16.21;100.00;102178.00;5345389;26;20000;-73
2024/04/14 09:40:05;;;;;;;17.73;3.10;;;;;;;16.45;100.00;102177.13;5338884;26;20319;-74
2024/04/14 09:42:32;;;;;;;16.17;3.10;;;;;;;16.89;100.00;102188.72;5345356;26;19993;-74
2024/04/14 09:44:59;;;;;;;19.10;3.25;;;;;;;17.20;100.00;102181.56;5345220;26;20005;-73
2024/04/14 09:47:25;;;;;;;12.82;2.80;;;;;;;17.76;100.00;102187.63;5345535;26;20013;-75
2024/04/14 09:49:54;;;;;;;15.25;3.00;;;;;;;17.59;100.00;102184.13;5345135;26;20138;-73
2024/04/14 09:52:21;;;;;;;15.93;2.90;;;;;;;17.88;100.00;102188.47;5345392;26;19997;-74
2024/04/14 09:54:47;;;;;;;16.02;2.80;;;;;;;18.19;100.00;102177.63;5345480;26;19997;-66
2024/04/14 09:57:13;;;;;;;15.30;2.75;;;;;;;18.16;100.00;102175.88;5345033;26;20004;-67
2024/04/14 09:59:38;;;;;;;15.30;2.70;;;;;;;18.26;100.00;102174.91;5344957;26;19996;-65
2024/04/14 10:02:09;;;;;;;15.15;3.08;;;;;;;18.58;100.00;102180.91;5345615;26;20340;-67
2024/04/14 10:04:35;;;;;;;15.02;3.10;;;;;;;17.92;100.00;102182.22;5338603;26;20329;-67
2024/04/14 10:07:02;;;;;;;15.57;3.00;;;;;;;17.63;100.00;102183.22;5348984;26;20074;-66
2024/04/14 10:09:27;;;;;;;16.38;3.20;;;;;;;17.14;100.00;102184.25;5348792;26;19997;-66
2024/04/14 10:11:53;;;;;;;14.27;2.80;;;;;;;17.12;100.00;102185.16;5348775;26;20324;-66
2024/04/14 10:14:19;;;;;;;16.20;2.90;;;;;;;18.04;100.00;102178.59;5348480;26;19997;-66
2024/04/14 10:16:54;;;;;;;15.60;3.17;;;;;;;18.72;100.00;102194.22;5348516;26;20112;-66
2024/04/14 10:19:21;;;;;;;15.18;3.05;;;;;;;18.26;100.00;102195.41;5348204;26;20003;-66
2024/04/14 10:21:46;;;;;;;15.48;2.80;;;;;;;17.92;100.00;102184.91;5348668;26;20011;-67
2024/04/14 10:24:12;;;;;;;15.93;2.97;;;;;;;17.48;100.00;102184.16;5348583;26;20433;-67
2024/04/14 10:26:37;;;;;;;15.15;2.72;;;;;;;18.03;100.00;102183.06;5348334;26;20436;-67
2024/04/14 10:29:06;;;;;;;13.73;2.47;;;;;;;18.78;99.68;102189.66;5348222;26;20506;-66
2024/04/14 10:31:35;;;;;;;14.18;2.60;;;;;;;19.48;100.00;102197.06;5348584;26;19993;-67
2024/04/14 10:34:05;;;;;;;14.05;2.50;;;;;;;19.67;86.55;102200.41;5346445;26;19997;-66
2024/04/14 10:36:30;;;;;;;16.00;2.85;;;;;;;19.51;91.45;102191.66;5348438;26;20074;-66
2024/04/14 10:38:56;;;;;;;13.80;2.70;;;;;;;19.57;86.35;102196.06;5348452;26;20005;-66
2024/04/14 10:41:22;;;;;;;14.60;2.65;;;;;;;20.62;82.55;102190.16;5348504;26;19997;-67
2024/04/14 10:43:48;;;;;;;13.65;2.72;;;;;;;21.43;70.71;102192.28;5348079;26;19996;-66
2024/04/14 10:46:13;;;;;;;13.60;2.60;;;;;;;21.85;68.41;102189.66;5348163;26;19992;-66
2024/04/14 10:48:44;;;;;;;14.68;2.50;;;;;;;21.76;68.40;102192.56;5348345;26;20429;-67
2024/04/14 10:51:09;;;;;;;12.00;2.50;;;;;;;21.64;60.50;102195.50;5347965;26;19997;-66
2024/04/14 10:53:34;;;;;;;13.43;2.40;;;;;;;21.84;69.63;102192.38;5390541;26;19997;-66
2024/04/14 10:56:00;;;;;;;14.60;2.85;;;;;;;21.35;61.42;102195.16;5347980;26;20383;-67
2024/04/14 10:58:36;;;;;;;11.75;2.50;;;;;;;20.38;71.84;102194.09;5347750;26;20321;-69
2024/04/14 11:01:02;;;;;;;13.60;2.40;;;;;;;20.13;76.65;102193.59;5347997;26;20000;-69
2024/04/14 11:03:27;;;;;;;13.10;2.47;;;;;;;20.16;72.02;102188.16;5347970;26;20013;-68